createdAt,value
2023-05-03T00:01:24.162Z,9.20
2023-05-03T00:03:57.009Z,9.10
2023-05-03T00:06:30.178Z,9.10
2023-05-03T00:09:03.490Z,9.10
2023-05-03T00:11:36.909Z,9.00
2023-05-03T00:14:09.893Z,9.00
2023-05-03T00:16:42.629Z,9.00
2023-05-03T00:19:28.376Z,9.00
2023-05-03T00:22:04.637Z,9.00
2023-05-03T00:24:37.964Z,9.00
2023-05-03T00:27:11.065Z,9.00
2023-05-03T00:29:44.104Z,8.80
2023-05-03T00:32:17.150Z,8.80
2023-05-03T00:34:57.324Z,8.70
2023-05-03T00:37:31.152Z,8.60
2023-05-03T00:40:05.287Z,8.50
2023-05-03T00:42:38.484Z,8.50
2023-05-03T00:45:11.607Z,8.40
2023-05-03T00:47:44.835Z,8.40
2023-05-03T00:50:18.157Z,8.40
2023-05-03T00:52:52.356Z,8.30
2023-05-03T00:55:31.071Z,8.40
2023-05-03T00:58:03.802Z,8.30
2023-05-03T01:00:37.766Z,8.30
2023-05-03T01:03:10.807Z,8.30
2023-05-03T01:05:56.582Z,8.40
2023-05-03T01:08:38.328Z,8.30
2023-05-03T01:11:25.754Z,8.30
2023-05-03T01:14:23.530Z,8.30
2023-05-03T01:17:01.072Z,8.20
2023-05-03T01:20:01.542Z,8.10
2023-05-03T01:22:46.582Z,7.90
2023-05-03T01:25:19.410Z,7.90
2023-05-03T01:27:52.284Z,7.80
2023-05-03T01:30:28.599Z,7.70
2023-05-03T01:33:29.096Z,7.70
2023-05-03T01:36:21.390Z,7.60
2023-05-03T01:38:54.538Z,7.60
2023-05-03T01:41:28.057Z,7.60
2023-05-03T01:44:03.757Z,7.60
2023-05-03T01:46:46.216Z,7.60
2023-05-03T01:49:19.050Z,7.70
2023-05-03T01:51:52.455Z,7.80
2023-05-03T01:54:25.358Z,7.70
2023-05-03T01:56:58.165Z,7.70
2023-05-03T01:59:30.994Z,7.60
2023-05-03T02:02:03.966Z,7.60
2023-05-03T02:04:36.970Z,7.50
2023-05-03T02:07:10.037Z,7.40
2023-05-03T02:09:42.934Z,7.30
2023-05-03T02:12:16.250Z,7.30
2023-05-03T02:14:49.217Z,7.30
2023-05-03T02:17:26.311Z,7.30
2023-05-03T02:19:59.183Z,7.30
2023-05-03T02:22:33.051Z,7.30
2023-05-03T02:25:07.594Z,7.30
2023-05-03T02:27:41.591Z,7.20
2023-05-03T02:30:14.745Z,7.20
2023-05-03T02:32:49.612Z,7.10
2023-05-03T02:35:24.445Z,7.10
2023-05-03T02:37:57.651Z,7.00
2023-05-03T02:40:30.682Z,7.00
2023-05-03T02:43:04.606Z,7.00
2023-05-03T02:45:37.965Z,7.00
2023-05-03T02:48:10.997Z,7.10
2023-05-03T02:50:43.987Z,7.10
2023-05-03T02:53:17.236Z,7.20
2023-05-03T02:55:51.229Z,7.10
2023-05-03T02:58:24.360Z,7.10
2023-05-03T03:00:57.215Z,7.10
2023-05-03T03:03:34.793Z,7.00
2023-05-03T03:06:08.366Z,7.00
2023-05-03T03:08:42.060Z,6.90
2023-05-03T03:11:14.920Z,6.90
2023-05-03T03:13:47.828Z,6.90
2023-05-03T03:16:21.105Z,6.90
2023-05-03T03:18:54.029Z,6.80
2023-05-03T03:21:29.229Z,6.80
2023-05-03T03:24:03.981Z,6.80
2023-05-03T03:26:36.915Z,6.70
2023-05-03T03:29:12.652Z,6.70
2023-05-03T03:31:49.432Z,6.70
2023-05-03T03:34:24.210Z,6.70
2023-05-03T03:36:57.274Z,6.60
2023-05-03T03:39:32.262Z,6.60
2023-05-03T03:42:05.708Z,6.60
2023-05-03T03:44:38.621Z,6.60
2023-05-03T03:47:13.439Z,6.60
2023-05-03T03:49:47.502Z,6.50
2023-05-03T03:52:20.561Z,6.40
2023-05-03T03:54:53.422Z,6.40
2023-05-03T03:57:30.106Z,6.40
2023-05-03T04:00:10.593Z,6.40
2023-05-03T04:02:47.572Z,6.40
2023-05-03T04:05:24.898Z,6.40
2023-05-03T04:07:58.062Z,6.50
2023-05-03T04:10:34.901Z,6.50
2023-05-03T04:13:08.735Z,6.60
2023-05-03T04:15:41.837Z,6.60
2023-05-03T04:18:14.843Z,6.70
2023-05-03T04:20:49.454Z,6.70
2023-05-03T04:23:23.760Z,6.50
2023-05-03T04:25:57.981Z,6.40
2023-05-03T04:28:33.052Z,6.40
2023-05-03T04:31:05.992Z,6.40
2023-05-03T04:33:41.701Z,6.40
2023-05-03T04:36:16.191Z,6.40
2023-05-03T04:38:52.473Z,6.50
2023-05-03T04:41:25.541Z,6.40
2023-05-03T04:43:59.987Z,6.40
2023-05-03T04:46:34.210Z,6.30
2023-05-03T04:49:07.017Z,6.30
2023-05-03T04:51:40.719Z,6.30
2023-05-03T04:54:14.018Z,6.30
2023-05-03T04:56:47.282Z,6.30
2023-05-03T04:59:23.760Z,6.30
2023-05-03T05:01:56.624Z,6.30
2023-05-03T05:04:31.029Z,6.30
2023-05-03T05:07:04.022Z,6.40
2023-05-03T05:09:38.813Z,6.50
2023-05-03T05:12:12.527Z,6.60
2023-05-03T05:14:48.745Z,6.70
2023-05-03T05:17:22.124Z,6.80
2023-05-03T05:19:56.218Z,6.80
2023-05-03T05:22:29.367Z,6.90
2023-05-03T05:25:07.687Z,6.90
2023-05-03T05:27:43.801Z,7.00
2023-05-03T05:30:17.005Z,7.10
2023-05-03T05:32:50.599Z,7.20
2023-05-03T05:35:23.815Z,7.30
2023-05-03T05:37:56.962Z,7.30
2023-05-03T05:40:30.374Z,7.40
2023-05-03T05:43:04.967Z,7.50
2023-05-03T05:45:40.978Z,7.50
2023-05-03T05:48:14.763Z,7.60
2023-05-03T05:50:49.158Z,7.80
2023-05-03T05:53:23.876Z,7.90
2023-05-03T05:56:03.219Z,8.10
2023-05-03T05:58:38.965Z,8.40
2023-05-03T06:01:12.702Z,8.50
2023-05-03T06:03:46.822Z,8.80
2023-05-03T06:06:21.269Z,9.00
2023-05-03T06:08:55.699Z,9.10
2023-05-03T06:11:30.072Z,9.20
2023-05-03T06:14:03.945Z,9.40
2023-05-03T06:16:38.018Z,9.50
2023-05-03T06:19:11.350Z,9.70
2023-05-03T06:21:44.038Z,9.80
2023-05-03T06:24:21.688Z,9.80
2023-05-03T06:26:58.832Z,9.90
2023-05-03T06:29:31.810Z,9.90
2023-05-03T06:32:04.920Z,9.90
2023-05-03T06:34:39.949Z,10.00
2023-05-03T06:37:14.237Z,10.10
2023-05-03T06:39:47.196Z,10.20
2023-05-03T06:42:20.599Z,10.30
2023-05-03T06:44:53.598Z,10.50
2023-05-03T06:47:26.361Z,10.50
2023-05-03T06:49:59.216Z,10.60
2023-05-03T06:52:32.382Z,10.90
2023-05-03T06:55:06.184Z,11.10
2023-05-03T06:57:41.164Z,11.30
2023-05-03T07:00:15.854Z,11.40
2023-05-03T07:02:49.016Z,11.70
2023-05-03T07:05:22.672Z,11.90
2023-05-03T07:07:55.605Z,12.10
2023-05-03T07:10:31.499Z,12.40
2023-05-03T07:13:04.511Z,12.60
2023-05-03T07:15:37.370Z,12.80
2023-05-03T07:18:11.184Z,13.10
2023-05-03T07:20:44.134Z,13.10
2023-05-03T07:23:17.433Z,13.40
2023-05-03T07:25:50.431Z,13.50
2023-05-03T07:28:24.992Z,13.30
2023-05-03T07:30:57.880Z,13.20
2023-05-03T07:33:33.797Z,13.00
2023-05-03T07:36:07.088Z,12.70
2023-05-03T07:38:40.202Z,12.80
2023-05-03T07:41:13.034Z,12.90
2023-05-03T07:43:49.067Z,13.00
2023-05-03T07:46:23.647Z,12.90
2023-05-03T07:48:58.449Z,12.90
2023-05-03T07:51:38.882Z,12.90
2023-05-03T07:54:24.755Z,12.90
2023-05-03T08:00:19.167Z,13.10
2023-05-03T08:02:52.002Z,13.10
2023-05-03T08:05:25.103Z,13.10
2023-05-03T08:07:58.101Z,13.10
2023-05-03T08:10:31.270Z,13.10
2023-05-03T08:13:07.563Z,13.10
2023-05-03T08:15:40.699Z,13.20
2023-05-03T08:18:13.495Z,13.20
2023-05-03T08:20:47.169Z,13.30
2023-05-03T08:23:21.778Z,13.40
2023-05-03T08:25:55.077Z,13.40
2023-05-03T08:28:28.315Z,13.60
2023-05-03T08:31:03.911Z,13.40
2023-05-03T08:33:38.397Z,13.40
2023-05-03T08:36:11.365Z,13.70
2023-05-03T08:38:44.268Z,14.10
2023-05-03T08:41:30.366Z,14.30
2023-05-03T08:44:05.736Z,14.50
2023-05-03T08:46:43.574Z,14.50
2023-05-03T08:49:18.800Z,14.50
2023-05-03T08:51:52.729Z,14.50
2023-05-03T08:54:26.758Z,14.30
2023-05-03T08:56:59.641Z,14.40
2023-05-03T08:59:32.557Z,14.40
2023-05-03T09:02:08.192Z,14.50
2023-05-03T09:04:41.321Z,14.60
2023-05-03T09:07:16.119Z,14.90
2023-05-03T09:09:48.916Z,15.00
2023-05-03T09:12:41.426Z,15.20
2023-05-03T09:15:22.380Z,15.20
2023-05-03T09:18:13.222Z,15.40
2023-05-03T09:20:53.765Z,15.40
2023-05-03T09:23:26.780Z,15.60
2023-05-03T09:26:00.480Z,15.70
2023-05-03T09:28:42.618Z,15.90
2023-05-03T09:31:15.702Z,15.80
2023-05-03T09:33:48.622Z,15.90
2023-05-03T09:36:21.941Z,16.10
2023-05-03T09:38:56.162Z,16.40
2023-05-03T09:41:30.548Z,16.50
2023-05-03T09:44:03.334Z,16.30
2023-05-03T09:46:37.364Z,16.30
2023-05-03T09:49:10.296Z,16.50
2023-05-03T09:51:43.695Z,16.70
2023-05-03T09:54:16.952Z,16.90
2023-05-03T09:56:50.987Z,17.20
2023-05-03T09:59:24.539Z,17.10
2023-05-03T10:01:59.873Z,16.80
2023-05-03T10:04:41.101Z,16.90
2023-05-03T10:07:17.580Z,16.70
2023-05-03T10:09:51.059Z,16.80
2023-05-03T10:12:25.550Z,16.80
2023-05-03T10:15:06.544Z,16.90
2023-05-03T10:17:46.903Z,17.30
2023-05-03T10:20:40.211Z,17.30
2023-05-03T10:23:14.196Z,17.40
2023-05-03T10:26:06.647Z,17.30
2023-05-03T10:28:39.443Z,17.50
2023-05-03T10:31:44.669Z,17.50
2023-05-03T10:34:25.114Z,17.60
2023-05-03T10:37:11.004Z,17.60
2023-05-03T10:39:46.808Z,17.30
2023-05-03T10:42:23.291Z,17.40
2023-05-03T10:44:56.077Z,17.80
2023-05-03T10:47:29.376Z,18.00
2023-05-03T10:50:14.587Z,18.00
2023-05-03T10:52:48.953Z,18.20
2023-05-03T10:55:25.085Z,18.30
2023-05-03T10:57:59.352Z,18.30
2023-05-03T11:00:39.123Z,18.30
2023-05-03T11:03:27.142Z,18.20
2023-05-03T11:06:00.230Z,18.40
2023-05-03T11:08:37.832Z,18.50
2023-05-03T11:11:11.228Z,18.50
2023-05-03T11:13:43.984Z,18.50
2023-05-03T11:16:17.073Z,18.50
2023-05-03T11:18:51.393Z,18.60
2023-05-03T11:21:25.074Z,18.70
2023-05-03T11:23:59.368Z,19.00
2023-05-03T11:26:36.673Z,19.10
2023-05-03T11:29:14.157Z,19.20
2023-05-03T11:31:47.004Z,19.40
2023-05-03T11:34:20.049Z,19.20
2023-05-03T11:36:52.802Z,19.20
2023-05-03T11:39:25.943Z,19.10
2023-05-03T11:42:05.907Z,19.20
2023-05-03T11:44:38.932Z,19.40
2023-05-03T11:47:12.396Z,19.40
2023-05-03T11:49:55.858Z,19.50
2023-05-03T11:52:28.838Z,19.80
2023-05-03T11:55:02.826Z,20.00
2023-05-03T11:57:37.550Z,19.90
2023-05-03T12:00:17.027Z,20.10
2023-05-03T12:02:50.204Z,20.00
2023-05-03T12:05:23.603Z,19.90
2023-05-03T12:07:58.354Z,20.00
2023-05-03T12:10:33.348Z,20.00
2023-05-03T12:13:09.043Z,20.00
2023-05-03T12:18:19.674Z,19.70
2023-05-03T12:23:36.172Z,19.60
2023-05-03T12:26:10.124Z,19.60
2023-05-03T12:28:43.297Z,19.70
2023-05-03T12:31:18.211Z,19.50
2023-05-03T12:36:31.235Z,19.10
2023-05-03T12:39:09.345Z,19.00
2023-05-03T12:42:06.245Z,19.00
2023-05-03T12:44:42.739Z,19.20
2023-05-03T12:47:23.835Z,18.90
2023-05-03T12:50:05.782Z,18.90
2023-05-03T12:52:39.796Z,18.90
2023-05-03T12:55:17.695Z,18.90
2023-05-03T12:58:10.355Z,18.70
2023-05-03T13:01:07.126Z,18.60
2023-05-03T13:03:43.530Z,18.60
2023-05-03T13:06:17.659Z,18.60
2023-05-03T13:08:51.395Z,18.70
2023-05-03T13:11:25.385Z,18.60
2023-05-03T13:13:58.298Z,18.50
2023-05-03T13:16:32.356Z,18.40
2023-05-03T13:19:05.386Z,18.50
2023-05-03T13:21:38.098Z,18.50
2023-05-03T13:24:10.991Z,18.50
2023-05-03T13:26:43.670Z,18.40
2023-05-03T13:29:16.630Z,18.30
2023-05-03T13:31:49.794Z,18.30
2023-05-03T13:34:22.707Z,18.30
2023-05-03T13:36:56.076Z,18.30
2023-05-03T13:39:29.042Z,18.20
2023-05-03T13:42:02.243Z,18.20
2023-05-03T13:44:35.156Z,18.20
2023-05-03T13:47:08.160Z,18.20
2023-05-03T13:49:41.266Z,18.20
2023-05-03T13:52:14.803Z,18.20
2023-05-03T13:54:47.483Z,18.30
2023-05-03T13:57:20.399Z,18.20
2023-05-03T13:59:53.215Z,18.30
2023-05-03T14:02:26.738Z,18.40
2023-05-03T14:04:59.661Z,18.50
2023-05-03T14:07:32.776Z,18.50
2023-05-03T14:10:07.031Z,18.50
2023-05-03T14:12:40.483Z,18.60
2023-05-03T14:15:13.622Z,18.60
2023-05-03T14:17:49.863Z,18.50
2023-05-03T14:20:23.165Z,18.50
2023-05-03T14:22:56.436Z,18.50
2023-05-03T14:25:30.059Z,18.50
2023-05-03T14:28:03.145Z,18.40
2023-05-03T14:30:36.420Z,18.30
2023-05-03T14:33:10.824Z,18.20
2023-05-03T14:35:44.681Z,18.30
2023-05-03T14:38:17.592Z,18.30
2023-05-03T14:40:53.377Z,18.30
2023-05-03T14:43:26.423Z,18.40
2023-05-03T14:45:59.159Z,18.40
2023-05-03T14:48:32.049Z,18.30
2023-05-03T14:51:05.229Z,18.40
2023-05-03T14:53:37.966Z,18.40
2023-05-03T14:56:11.046Z,18.40
2023-05-03T14:58:43.831Z,18.40
2023-05-03T15:01:18.400Z,18.40
2023-05-03T15:03:52.372Z,18.40
2023-05-03T15:06:28.820Z,18.40
2023-05-03T15:09:02.112Z,18.40
2023-05-03T15:11:34.842Z,18.50
2023-05-03T15:14:09.148Z,18.60
2023-05-03T15:16:42.134Z,18.50
2023-05-03T15:19:15.165Z,18.50
2023-05-03T15:21:50.108Z,18.50
2023-05-03T15:24:22.974Z,18.50
2023-05-03T15:26:56.543Z,18.50
2023-05-03T15:29:29.718Z,18.50
2023-05-03T15:32:03.571Z,18.50
2023-05-03T15:34:37.475Z,18.40
2023-05-03T15:37:12.172Z,18.50
2023-05-03T15:39:45.261Z,18.50
2023-05-03T15:42:18.210Z,18.50
2023-05-03T15:44:51.502Z,18.40
2023-05-03T15:47:27.106Z,18.40
2023-05-03T15:50:00.155Z,18.40
2023-05-03T15:52:33.255Z,18.40
2023-05-03T15:55:06.934Z,18.30
2023-05-03T15:57:40.078Z,18.30
2023-05-03T16:00:15.931Z,18.20
2023-05-03T16:02:48.742Z,18.30
2023-05-03T16:05:22.436Z,18.30
2023-05-03T16:07:55.462Z,18.30
2023-05-03T16:10:28.661Z,18.30
2023-05-03T16:13:01.927Z,18.30
2023-05-03T16:15:35.350Z,18.30
2023-05-03T16:18:08.419Z,18.40
2023-05-03T16:20:41.168Z,18.40
2023-05-03T16:23:14.016Z,18.40
2023-05-03T16:25:47.424Z,18.50
2023-05-03T16:28:20.492Z,18.50
2023-05-03T16:30:53.198Z,18.50
2023-05-03T16:33:26.097Z,18.50
2023-05-03T16:35:58.816Z,18.50
2023-05-03T16:38:32.176Z,18.50
2023-05-03T16:41:05.148Z,18.40
2023-05-03T16:43:38.530Z,18.30
2023-05-03T16:46:11.340Z,18.30
2023-05-03T16:48:44.475Z,18.20
2023-05-03T16:51:21.152Z,18.10
2023-05-03T16:53:55.408Z,18.10
2023-05-03T16:56:30.746Z,18.10
2023-05-03T16:59:04.120Z,18.10
2023-05-03T17:01:37.131Z,18.10
2023-05-03T17:04:09.862Z,18.10
2023-05-03T17:06:42.856Z,18.10
2023-05-03T17:09:16.903Z,18.10
2023-05-03T17:11:49.953Z,18.10
2023-05-03T17:14:23.087Z,18.10
2023-05-03T17:16:55.900Z,18.00
2023-05-03T17:19:29.479Z,18.00
2023-05-03T17:22:02.334Z,18.00
2023-05-03T17:24:35.055Z,18.00
2023-05-03T17:27:08.753Z,18.00
2023-05-03T17:29:41.704Z,17.90
2023-05-03T17:32:14.811Z,17.90
2023-05-03T17:34:47.820Z,17.90
2023-05-03T17:37:23.395Z,17.90
2023-05-03T17:39:56.260Z,17.90
2023-05-03T17:42:29.024Z,17.90
2023-05-03T17:45:02.675Z,17.90
2023-05-03T17:47:35.649Z,17.90
2023-05-03T17:50:08.980Z,17.90
2023-05-03T17:52:41.894Z,17.80
2023-05-03T17:55:15.635Z,17.80
2023-05-03T17:57:49.558Z,17.70
2023-05-03T18:00:22.865Z,17.70
2023-05-03T18:02:56.450Z,17.60
2023-05-03T18:05:35.355Z,17.60
2023-05-03T18:08:08.188Z,17.50
2023-05-03T18:10:43.934Z,17.40
2023-05-03T18:13:16.887Z,17.40
2023-05-03T18:15:50.092Z,17.40
2023-05-03T18:18:22.879Z,17.30
2023-05-03T18:21:03.655Z,17.30
2023-05-03T18:23:36.527Z,17.20
2023-05-03T18:26:09.846Z,17.10
2023-05-03T18:31:16.031Z,17.00
2023-05-03T18:33:48.899Z,16.90
2023-05-03T18:36:23.509Z,16.80
2023-05-03T18:38:56.329Z,16.70
2023-05-03T18:41:29.558Z,16.70
2023-05-03T18:44:03.893Z,16.60
2023-05-03T18:46:38.081Z,16.50
2023-05-03T18:49:12.044Z,16.40
2023-05-03T18:51:45.776Z,16.30
2023-05-03T18:54:20.408Z,16.20
2023-05-03T18:56:53.355Z,16.10
2023-05-03T18:59:26.493Z,16.00
2023-05-03T19:01:59.405Z,16.00
2023-05-03T19:04:32.267Z,15.90
2023-05-03T19:07:05.395Z,15.80
2023-05-03T19:09:40.419Z,15.70
2023-05-03T19:12:13.634Z,15.70
2023-05-03T19:14:46.980Z,15.60
2023-05-03T19:17:19.822Z,15.50
2023-05-03T19:19:52.586Z,15.50
2023-05-03T19:22:25.744Z,15.40
2023-05-03T19:24:58.770Z,15.30
2023-05-03T19:27:32.071Z,15.30
2023-05-03T19:30:05.768Z,15.30
2023-05-03T19:32:39.566Z,15.20
2023-05-03T19:35:12.441Z,15.10
2023-05-03T19:37:45.516Z,15.10
2023-05-03T19:40:18.460Z,15.00
2023-05-03T19:42:52.645Z,15.00
2023-05-03T19:45:25.781Z,14.90
2023-05-03T19:47:58.643Z,14.80
2023-05-03T19:50:31.437Z,14.70
2023-05-03T19:53:04.346Z,14.70
2023-05-03T19:55:37.423Z,14.60
2023-05-03T19:58:13.655Z,14.60
2023-05-03T20:00:46.391Z,14.50
2023-05-03T20:03:20.958Z,14.50
2023-05-03T20:05:54.180Z,14.30
2023-05-03T20:08:27.204Z,14.30
2023-05-03T20:11:00.077Z,14.30
2023-05-03T20:13:33.775Z,14.20
2023-05-03T20:16:08.437Z,14.10
2023-05-03T20:18:43.204Z,14.10
2023-05-03T20:21:16.366Z,14.00
2023-05-03T20:23:50.111Z,14.00
2023-05-03T20:26:22.976Z,14.00
2023-05-03T20:28:55.716Z,13.90
2023-05-03T20:31:28.749Z,13.90
2023-05-03T20:34:01.960Z,13.80
2023-05-03T20:36:34.912Z,13.80
2023-05-03T20:39:09.602Z,13.80
2023-05-03T20:41:42.603Z,13.80
2023-05-03T20:44:15.333Z,13.70
2023-05-03T20:46:48.654Z,13.70
2023-05-03T20:49:21.427Z,13.70
2023-05-03T20:51:54.437Z,13.60
2023-05-03T20:54:27.366Z,13.60
2023-05-03T20:57:00.658Z,13.60
2023-05-03T20:59:35.668Z,13.50
2023-05-03T21:02:08.744Z,13.50
2023-05-03T21:04:41.993Z,13.50
2023-05-03T21:07:14.965Z,13.50
2023-05-03T21:09:48.105Z,13.50
2023-05-03T21:12:21.057Z,13.40
2023-05-03T21:14:53.913Z,13.50
2023-05-03T21:17:27.079Z,13.50
2023-05-03T21:20:01.356Z,13.40
2023-05-03T21:22:34.228Z,13.50
2023-05-03T21:25:07.615Z,13.40
2023-05-03T21:27:40.538Z,13.30
2023-05-03T21:30:14.063Z,13.30
2023-05-03T21:32:49.973Z,13.20
2023-05-03T21:35:25.207Z,13.20
2023-05-03T21:37:58.393Z,13.00
2023-05-03T21:40:31.202Z,13.00
2023-05-03T21:43:05.836Z,12.90
2023-05-03T21:45:43.046Z,12.80
2023-05-03T21:48:16.014Z,12.70
2023-05-03T21:50:48.715Z,12.60
2023-05-03T21:53:22.158Z,12.60
2023-05-03T21:55:54.928Z,12.50
2023-05-03T21:58:27.726Z,12.40
2023-05-03T22:01:00.521Z,12.40
2023-05-03T22:03:34.341Z,12.30
2023-05-03T22:06:08.854Z,12.20
2023-05-03T22:08:41.867Z,12.20
2023-05-03T22:11:14.866Z,12.20
2023-05-03T22:14:05.811Z,12.20
2023-05-03T22:16:42.066Z,12.10
2023-05-03T22:19:15.039Z,12.10
2023-05-03T22:21:47.818Z,12.00
2023-05-03T22:24:20.682Z,12.00
2023-05-03T22:26:53.372Z,11.90
2023-05-03T22:29:26.910Z,11.90
2023-05-03T22:31:59.730Z,11.90
2023-05-03T22:34:32.729Z,11.80
2023-05-03T22:37:08.787Z,11.70
2023-05-03T22:39:41.598Z,11.70
2023-05-03T22:42:14.579Z,11.60
2023-05-03T22:44:47.252Z,11.60
2023-05-03T22:47:21.071Z,11.60
2023-05-03T22:49:54.035Z,11.60
2023-05-03T22:52:26.720Z,11.50
2023-05-03T22:55:00.879Z,11.40
2023-05-03T22:57:34.322Z,11.40
2023-05-03T23:00:10.306Z,11.30
2023-05-03T23:02:43.287Z,11.30
2023-05-03T23:05:16.292Z,11.30
2023-05-03T23:07:49.120Z,11.20
2023-05-03T23:10:22.007Z,11.20
2023-05-03T23:12:55.307Z,11.20
2023-05-03T23:15:29.757Z,11.20
2023-05-03T23:18:03.143Z,11.10
2023-05-03T23:20:35.971Z,11.10
2023-05-03T23:23:08.909Z,11.10
2023-05-03T23:25:42.185Z,11.10
2023-05-03T23:28:15.229Z,11.00
2023-05-03T23:30:48.513Z,10.90
2023-05-03T23:33:22.063Z,10.90
2023-05-03T23:35:55.567Z,10.80
2023-05-03T23:38:28.449Z,10.80
2023-05-03T23:41:01.596Z,10.70
2023-05-03T23:43:34.456Z,10.60
2023-05-03T23:46:07.805Z,10.60
2023-05-03T23:48:40.699Z,10.50
2023-05-03T23:51:13.664Z,10.40
2023-05-03T23:53:46.601Z,10.40
2023-05-03T23:56:19.628Z,10.30
2023-05-03T23:58:52.767Z,10.30
